Time;durP1;ratioP1;P1;durP2;ratioP2;P2;SDS_P1;SDS_P2;PMS_P1;PMS_P2;Temp;Humidity;BMP_temperature;BMP_pressure;BME280_temperature;BME280_humidity;BME280_pressure;Samples;Min_cycle;Max_cycle;Signal;HPM_P1;HPM_P2
2021/06/11 00:01:19;;;;;;;7.38;6.88;;;;;;;16.96;74.19;95647.38;5011432;28;20046;-65
2021/06/11 00:03:44;;;;;;;7.25;6.55;;;;;;;17.15;74.08;95674.53;5010842;28;20033;-65
2021/06/11 00:06:10;;;;;;;7.75;7.15;;;;;;;17.12;74.16;95674.41;5010828;28;20032;-64
2021/06/11 00:08:35;;;;;;;7.53;6.93;;;;;;;17.13;73.86;95674.06;5012914;28;20045;-65
2021/06/11 00:11:00;;;;;;;8.48;7.57;;;;;;;17.11;74.45;95681.69;5009610;28;20373;-65
2021/06/11 00:13:26;;;;;;;7.78;7.18;;;;;;;17.05;74.34;95671.50;5000722;28;20408;-66
2021/06/11 00:15:51;;;;;;;7.13;6.63;;;;;;;17.04;74.64;95673.38;5009876;28;20038;-66
2021/06/11 00:18:17;;;;;;;7.20;6.70;;;;;;;16.96;74.46;95655.44;5011028;28;20022;-65
2021/06/11 00:20:42;;;;;;;7.20;6.50;;;;;;;17.08;74.73;95682.34;5010997;28;20030;-65
2021/06/11 00:23:07;;;;;;;7.93;7.28;;;;;;;17.04;74.59;95667.22;5027401;28;20111;-64
2021/06/11 00:25:33;;;;;;;8.40;7.72;;;;;;;17.06;74.99;95679.22;5012730;28;20281;-65
2021/06/11 00:28:00;;;;;;;7.28;6.78;;;;;;;17.05;75.17;95674.97;5030812;28;20124;-66
2021/06/11 00:30:27;;;;;;;8.38;7.43;;;;;;;16.95;75.09;95666.53;5027247;28;20145;-65
2021/06/11 00:32:52;;;;;;;7.80;7.20;;;;;;;16.99;75.30;95664.72;5012147;28;20045;-65
2021/06/11 00:35:18;;;;;;;7.28;6.78;;;;;;;16.98;75.47;95657.78;5029527;28;20396;-65
2021/06/11 00:37:43;;;;;;;7.75;7.15;;;;;;;16.96;75.79;95660.03;5029778;28;20049;-65
2021/06/11 00:40:10;;;;;;;6.93;6.50;;;;;;;16.99;75.86;95670.91;5030284;28;20125;-65
2021/06/11 00:42:36;;;;;;;6.90;6.43;;;;;;;17.01;76.19;95668.69;5029697;28;20515;-65
2021/06/11 00:45:04;;;;;;;7.85;7.30;;;;;;;17.03;75.91;95671.03;5030287;28;20025;-65
2021/06/11 00:47:29;;;;;;;8.20;7.55;;;;;;;16.98;76.33;95663.16;5032291;28;20021;-65
2021/06/11 00:49:55;;;;;;;7.43;6.93;;;;;;;16.96;76.16;95651.97;5030080;28;20041;-65
2021/06/11 00:52:21;;;;;;;8.30;7.70;;;;;;;17.12;76.15;95669.03;5029040;28;20037;-65
2021/06/11 00:54:46;;;;;;;7.65;7.15;;;;;;;17.03;76.43;95654.91;5029778;28;20065;-65
2021/06/11 00:57:12;;;;;;;8.27;7.65;;;;;;;17.00;76.08;95647.53;5029361;28;20017;-65
2021/06/11 00:59:40;;;;;;;8.00;7.40;;;;;;;17.21;76.18;95675.13;5032088;28;20061;-65
2021/06/11 01:02:06;;;;;;;7.97;7.47;;;;;;;17.25;76.00;95667.16;5029924;28;20507;-65
2021/06/11 01:04:32;;;;;;;8.27;7.68;;;;;;;17.31;75.96;95671.22;5029868;28;20399;-65
2021/06/11 01:06:57;;;;;;;9.30;8.50;;;;;;;17.31;75.59;95660.47;5011593;28;20037;-65
2021/06/11 01:09:24;;;;;;;8.00;7.43;;;;;;;17.46;75.73;95675.16;5029807;28;20138;-66
2021/06/11 01:11:50;;;;;;;7.78;7.18;;;;;;;17.50;75.40;95665.28;5031644;28;20030;-65
2021/06/11 01:14:16;;;;;;;7.25;6.68;;;;;;;17.54;75.10;95666.97;5010828;28;20706;-65
2021/06/11 01:16:41;;;;;;;7.68;7.10;;;;;;;17.60;74.75;95657.56;5010177;28;20037;-65
2021/06/11 01:19:10;;;;;;;8.70;7.85;;;;;;;17.60;74.33;95648.69;5009843;28;20040;-65
2021/06/11 01:21:59;;;;;;;7.60;6.95;;;;;;;17.78;74.21;95668.94;5007997;28;20050;-65
2021/06/11 01:24:30;;;;;;;7.78;7.18;;;;;;;17.83;74.01;95662.53;5009077;28;20026;-64
2021/06/11 01:26:57;;;;;;;7.00;6.45;;;;;;;17.88;73.78;95667.69;5011201;28;20083;-65
2021/06/11 01:29:29;;;;;;;7.75;7.15;;;;;;;17.92;73.60;95666.69;5009801;28;20559;-65
2021/06/11 01:32:01;;;;;;;7.93;7.15;;;;;;;17.95;73.59;95661.72;5009799;28;20037;-65
2021/06/11 01:34:33;;;;;;;7.82;7.22;;;;;;;17.99;73.39;95662.63;5009108;28;20034;-65
2021/06/11 01:37:14;;;;;;;7.43;6.82;;;;;;;18.00;73.35;95666.88;5009206;28;20080;-65
2021/06/11 01:39:40;;;;;;;7.38;6.88;;;;;;;18.02;73.22;95662.75;5009593;28;20526;-65
2021/06/11 01:42:07;;;;;;;8.20;7.60;;;;;;;18.03;73.10;95664.31;5009478;28;20034;-66
2021/06/11 01:44:36;;;;;;;7.85;7.15;;;;;;;18.01;73.11;95661.16;5011224;28;20488;-65
2021/06/11 01:47:02;;;;;;;7.00;6.50;;;;;;;18.08;73.04;95661.41;5009670;28;20053;-65
2021/06/11 01:49:29;;;;;;;7.50;6.22;;;;;;;18.09;72.94;95660.25;5009505;28;20041;-65
2021/06/11 01:51:57;;;;;;;7.45;6.95;;;;;;;18.05;72.80;95645.91;5023934;28;20041;-66
2021/06/11 01:54:24;;;;;;;6.57;6.07;;;;;;;18.13;72.67;95653.09;5011865;28;20056;-65
2021/06/11 01:56:51;;;;;;;7.53;6.93;;;;;;;18.15;72.62;95650.81;5030878;28;20029;-65
2021/06/11 01:59:17;;;;;;;7.38;6.78;;;;;;;18.11;72.65;95639.16;5010324;28;20172;-65
2021/06/11 02:01:44;;;;;;;6.85;6.20;;;;;;;18.17;72.43;95645.13;5009154;28;20124;-65
2021/06/11 02:04:10;;;;;;;7.35;6.85;;;;;;;18.16;72.34;95641.63;5007569;28;20048;-63
2021/06/11 02:06:36;;;;;;;6.43;5.93;;;;;;;18.16;72.01;95635.44;5008689;28;20030;-65
2021/06/11 02:09:03;;;;;;;7.00;6.50;;;;;;;18.15;72.35;95637.38;5007839;28;20033;-65
2021/06/11 02:11:29;;;;;;;6.72;6.13;;;;;;;18.12;72.11;95635.38;5030569;28;20100;-65
2021/06/11 02:13:55;;;;;;;7.05;6.55;;;;;;;18.14;72.18;95635.03;5012362;28;20128;-65
2021/06/11 02:16:25;;;;;;;7.50;6.93;;;;;;;18.11;72.08;95641.84;5019585;28;20410;-65
2021/06/11 02:18:52;;;;;;;7.03;6.43;;;;;;;17.98;72.33;95624.16;5027215;28;20049;-63
2021/06/11 02:21:18;;;;;;;6.90;6.45;;;;;;;17.87;72.35;95620.38;5027140;28;20388;-63
2021/06/11 02:23:43;;;;;;;6.68;6.28;;;;;;;17.81;72.41;95617.13;5028903;28;20100;-64
2021/06/11 02:26:13;;;;;;;6.95;6.45;;;;;;;17.85;72.68;95628.78;5011304;28;20396;-64
2021/06/11 02:28:39;;;;;;;7.97;7.38;;;;;;;17.77;73.04;95624.31;5008607;28;20079;-64
2021/06/11 02:31:05;;;;;;;7.03;6.43;;;;;;;17.76;73.14;95640.78;5008594;28;20069;-64
2021/06/11 02:33:30;;;;;;;7.80;7.20;;;;;;;17.60;73.45;95619.91;5008223;28;20555;-64
2021/06/11 02:35:56;;;;;;;7.45;6.88;;;;;;;17.56;73.84;95637.84;5010487;28;20412;-64
2021/06/11 02:38:22;;;;;;;7.63;7.13;;;;;;;17.49;74.06;95634.91;5008106;28;20672;-64
2021/06/11 02:40:49;;;;;;;9.32;8.63;;;;;;;17.34;74.48;95628.28;5008485;28;20074;-64
2021/06/11 02:43:15;;;;;;;7.72;7.13;;;;;;;17.33;74.88;95632.09;5007956;28;20408;-64
2021/06/11 02:45:55;;;;;;;6.90;6.40;;;;;;;17.18;75.38;95624.69;5008632;28;20484;-64
2021/06/11 02:48:43;;;;;;;7.93;7.30;;;;;;;17.22;75.75;95641.72;5007408;28;20065;-63
2021/06/11 02:51:21;;;;;;;9.20;8.40;;;;;;;17.14;76.01;95640.69;5008514;28;20018;-64
2021/06/11 02:53:48;;;;;;;7.78;7.18;;;;;;;16.93;76.21;95618.47;5006610;28;20030;-64
2021/06/11 02:56:27;;;;;;;8.18;7.57;;;;;;;17.00;76.23;95640.25;5026247;28;20102;-64
2021/06/11 02:58:58;;;;;;;6.85;6.35;;;;;;;17.00;76.84;95639.47;5028231;28;20053;-64
2021/06/11 03:01:24;;;;;;;7.75;7.22;;;;;;;16.88;76.85;95632.13;5028279;28;20040;-64
2021/06/11 03:03:51;;;;;;;8.57;7.97;;;;;;;16.82;76.89;95625.41;5027763;28;20073;-64
2021/06/11 03:06:19;;;;;;;8.57;7.88;;;;;;;16.91;76.85;95642.22;5025586;28;20105;-64
2021/06/11 03:08:47;;;;;;;8.30;7.60;;;;;;;16.91;77.00;95652.19;5010145;28;20029;-63
2021/06/11 03:11:18;;;;;;;8.63;7.93;;;;;;;16.84;77.21;95642.78;5008263;28;20049;-64
2021/06/11 03:13:46;;;;;;;9.07;8.48;;;;;;;16.87;77.66;95657.44;5008126;28;20069;-64
2021/06/11 03:16:11;;;;;;;10.15;9.40;;;;;;;16.83;77.88;95656.50;5008210;28;20046;-64
2021/06/11 03:18:44;;;;;;;8.75;8.10;;;;;;;16.78;78.15;95640.59;5008331;28;20061;-63
2021/06/11 03:21:23;;;;;;;8.13;7.57;;;;;;;16.91;78.10;95657.56;5008865;28;20029;-64
2021/06/11 03:23:57;;;;;;;7.93;7.35;;;;;;;17.00;78.02;95659.06;5026398;28;20021;-64
2021/06/11 03:26:28;;;;;;;7.97;7.38;;;;;;;17.08;77.67;95660.06;5009014;28;20034;-64
2021/06/11 03:28:58;;;;;;;7.90;7.40;;;;;;;17.14;77.24;95662.19;5008283;28;20588;-64
2021/06/11 03:31:31;;;;;;;7.85;7.20;;;;;;;17.21;77.11;95666.28;5008108;28;20034;-64
2021/06/11 03:34:02;;;;;;;8.55;7.95;;;;;;;17.29;76.96;95660.78;5014745;28;20125;-64
2021/06/11 03:36:32;;;;;;;7.50;7.00;;;;;;;17.35;76.64;95667.53;5024328;28;20038;-64
2021/06/11 03:39:04;;;;;;;7.72;7.13;;;;;;;17.35;76.16;95666.72;5009862;28;20026;-63
2021/06/11 03:41:31;;;;;;;;;;;;;;;17.34;75.79;95667.84;5009079;28;20076;-64
2021/06/11 03:43:57;;;;;;;8.30;7.70;;;;;;;17.27;75.78;95673.78;5007557;28;20323;-64
2021/06/11 03:46:31;;;;;;;7.93;7.40;;;;;;;17.20;75.76;95672.75;5007701;28;20034;-64
2021/06/11 03:48:57;;;;;;;7.80;7.20;;;;;;;16.99;75.77;95654.78;5008905;28;20078;-64
2021/06/11 03:51:25;;;;;;;8.52;7.82;;;;;;;16.91;76.18;95644.91;5011803;28;20482;-64
2021/06/11 03:53:52;;;;;;;8.52;7.82;;;;;;;17.04;76.38;95670.69;5012781;28;20030;-65
2021/06/11 03:56:20;;;;;;;7.85;7.25;;;;;;;17.05;76.75;95674.97;5011375;28;20034;-64
2021/06/11 03:58:47;;;;;;;7.28;6.80;;;;;;;17.09;76.65;95673.16;5011472;28;20076;-64
2021/06/11 04:01:24;;;;;;;7.38;6.68;;;;;;;17.18;76.50;95675.00;5011270;28;20038;-64
2021/06/11 04:03:50;;;;;;;6.90;6.25;;;;;;;17.33;76.08;95677.03;5017358;28;20041;-64
2021/06/11 04:06:20;;;;;;;6.03;5.60;;;;;;;17.59;75.71;95682.88;5029385;28;20592;-64
2021/06/11 04:08:51;;;;;;;5.88;5.43;;;;;;;17.84;74.87;95667.56;5012558;28;20084;-64
2021/06/11 04:11:21;;;;;;;5.70;5.30;;;;;;;18.25;73.45;95671.13;5011521;28;20049;-65
2021/06/11 04:13:59;;;;;;;5.60;5.10;;;;;;;18.56;72.04;95675.88;5010672;28;20046;-65
2021/06/11 04:16:39;;;;;;;5.35;4.95;;;;;;;18.69;71.25;95669.34;5010962;28;20046;-64
2021/06/11 04:19:10;;;;;;;5.60;5.20;;;;;;;18.86;70.47;95673.66;5011042;28;20084;-65
2021/06/11 04:21:35;;;;;;;6.10;5.60;;;;;;;18.99;69.52;95681.69;5010734;28;20034;-64
2021/06/11 04:24:04;;;;;;;6.75;4.68;;;;;;;19.03;69.38;95679.88;5012103;28;20025;-64
2021/06/11 04:26:33;;;;;;;5.28;4.78;;;;;;;19.11;68.73;95684.31;5030836;28;20030;-64
2021/06/11 04:29:01;;;;;;;5.28;4.80;;;;;;;19.26;68.37;95686.28;5030609;28;20099;-64
2021/06/11 04:31:29;;;;;;;5.07;4.78;;;;;;;19.47;67.74;95684.13;5030416;28;20041;-64
2021/06/11 04:33:57;;;;;;;4.90;4.60;;;;;;;19.59;66.58;95680.56;5030043;28;20045;-64
2021/06/11 04:36:22;;;;;;;5.32;4.80;;;;;;;19.75;66.32;95696.75;5030555;28;20030;-64
2021/06/11 04:38:55;;;;;;;5.30;4.90;;;;;;;19.61;66.02;95681.03;5013881;28;20030;-64
2021/06/11 04:41:20;;;;;;;4.95;4.65;;;;;;;19.57;65.79;95688.22;5007940;28;20408;-64
2021/06/11 04:43:46;;;;;;;5.15;4.72;;;;;;;19.37;66.26;95668.44;5023946;28;20050;-65
2021/06/11 04:46:11;;;;;;;4.55;4.32;;;;;;;19.40;66.54;95691.25;5021048;28;20395;-64
2021/06/11 04:48:36;;;;;;;6.00;5.60;;;;;;;19.29;66.62;95690.19;5010362;28;20488;-64
2021/06/11 04:51:02;;;;;;;5.53;5.13;;;;;;;19.15;67.23;95686.00;5012232;28;20433;-64
2021/06/11 04:53:27;;;;;;;5.50;5.00;;;;;;;19.24;67.46;95696.59;5009530;28;20545;-64
2021/06/11 04:55:53;;;;;;;4.60;4.30;;;;;;;19.38;67.30;95693.50;5010223;28;20454;-64
2021/06/11 04:58:18;;;;;;;4.97;4.60;;;;;;;19.56;66.94;95691.28;5010157;28;20049;-64
2021/06/11 05:00:44;;;;;;;4.55;4.15;;;;;;;19.69;66.65;95684.66;5009078;28;20072;-65
2021/06/11 05:03:09;;;;;;;4.38;4.15;;;;;;;20.05;65.75;95699.00;5009501;28;20035;-64
2021/06/11 05:05:34;;;;;;;4.63;4.28;;;;;;;20.24;65.11;95699.06;5011994;28;20476;-66
2021/06/11 05:08:00;;;;;;;5.18;4.78;;;;;;;20.47;63.66;95704.59;5009853;28;20104;-64
2021/06/11 05:10:26;;;;;;;5.03;4.40;;;;;;;20.63;63.10;95699.16;5010065;28;20365;-64
2021/06/11 05:12:51;;;;;;;6.20;4.78;;;;;;;20.88;62.11;95699.66;5009194;28;20708;-65
2021/06/11 05:15:17;;;;;;;5.20;4.68;;;;;;;21.04;61.13;95711.19;5010007;28;20022;-64
2021/06/11 05:17:42;;;;;;;4.82;4.43;;;;;;;21.15;60.60;95698.66;5011742;28;20084;-64
2021/06/11 05:20:08;;;;;;;6.22;4.82;;;;;;;21.32;60.31;95699.38;5009901;28;20042;-64
2021/06/11 05:22:33;;;;;;;5.40;4.90;;;;;;;21.52;60.11;95703.59;5008997;28;20479;-64
2021/06/11 05:25:01;;;;;;;4.78;4.47;;;;;;;21.64;59.46;95694.50;5009428;28;20120;-65
2021/06/11 05:27:26;;;;;;;5.07;4.63;;;;;;;21.69;58.51;95713.16;5009440;28;20505;-65
2021/06/11 05:29:51;;;;;;;5.45;4.97;;;;;;;21.77;58.19;95712.16;5011544;28;20026;-65
2021/06/11 05:32:17;;;;;;;6.55;5.95;;;;;;;20.89;59.54;95715.53;5009422;28;20095;-65
2021/06/11 05:34:42;;;;;;;6.40;5.80;;;;;;;20.40;61.45;95705.22;5009420;28;20152;-66
2021/06/11 05:37:07;;;;;;;6.63;6.10;;;;;;;20.19;61.93;95715.53;5009055;28;20056;-65
2021/06/11 05:39:33;;;;;;;6.35;5.70;;;;;;;19.78;62.31;95671.00;5009661;28;20391;-66
2021/06/11 05:41:58;;;;;;;6.75;6.25;;;;;;;20.29;62.13;95716.94;5011137;28;20109;-66
2021/06/11 05:44:24;;;;;;;6.20;5.47;;;;;;;20.71;61.81;95712.47;5027856;28;20242;-67
2021/06/11 05:46:49;;;;;;;8.90;5.95;;;;;;;20.96;60.95;95715.66;5014815;28;20050;-67
2021/06/11 05:49:14;;;;;;;6.38;5.88;;;;;;;21.17;60.34;95711.81;5009198;28;20064;-66
2021/06/11 05:51:40;;;;;;;6.68;6.03;;;;;;;21.08;59.13;95706.63;5009134;28;20480;-67
2021/06/11 05:54:05;;;;;;;6.30;5.78;;;;;;;21.31;59.35;95716.75;5008379;28;20074;-66
2021/06/11 05:56:30;;;;;;;6.20;5.70;;;;;;;21.36;59.22;95692.09;5010846;28;20026;-68
2021/06/11 05:58:56;;;;;;;5.80;5.15;;;;;;;21.07;58.93;95659.06;5009235;28;20038;-68
2021/06/11 06:01:21;;;;;;;6.97;6.38;;;;;;;21.43;58.67;95722.00;5009766;28;20046;-67
2021/06/11 06:03:47;;;;;;;6.97;6.20;;;;;;;21.42;58.89;95720.44;5008605;28;20129;-64
2021/06/11 06:06:12;;;;;;;7.13;6.45;;;;;;;21.39;58.68;95723.84;5009061;28;20030;-63
2021/06/11 06:08:38;;;;;;;6.20;5.60;;;;;;;21.42;58.72;95723.91;5010510;28;20026;-65
2021/06/11 06:11:03;;;;;;;6.38;5.78;;;;;;;21.44;58.35;95718.13;5008957;28;20100;-62
2021/06/11 06:13:28;;;;;;;7.80;6.07;;;;;;;21.45;58.46;95706.97;5007802;28;20042;-63
2021/06/11 06:15:55;;;;;;;11.23;5.60;;;;;;;21.51;58.31;95710.16;5005726;28;20451;-64
2021/06/11 06:18:21;;;;;;;6.65;5.95;;;;;;;21.58;58.34;95712.97;5009003;28;20053;-65
2021/06/11 06:20:46;;;;;;;6.15;5.57;;;;;;;21.71;58.30;95719.00;5030409;28;20121;-65
2021/06/11 06:23:12;;;;;;;6.03;5.53;;;;;;;21.73;57.72;95709.38;5010251;28;20515;-64
2021/06/11 06:25:38;;;;;;;6.00;5.50;;;;;;;21.97;56.22;95718.28;5008546;28;20038;-69
2021/06/11 06:28:04;;;;;;;8.38;5.65;;;;;;;22.06;55.93;95718.81;5008878;28;20046;-66
2021/06/11 06:30:29;;;;;;;5.88;5.35;;;;;;;22.11;56.17;95718.53;5008425;28;20446;-63
2021/06/11 06:32:55;;;;;;;6.22;5.78;;;;;;;22.04;55.57;95685.88;5010114;28;20029;-62
2021/06/11 06:35:20;;;;;;;5.97;4.95;;;;;;;22.30;55.45;95714.91;5008578;28;20393;-62
2021/06/11 06:37:46;;;;;;;5.53;5.03;;;;;;;22.07;55.64;95668.91;5008082;28;20034;-63
2021/06/11 06:40:13;;;;;;;5.07;4.68;;;;;;;22.30;55.08;95680.47;5008160;28;20117;-63
2021/06/11 06:42:39;;;;;;;5.63;5.22;;;;;;;21.91;54.01;95628.44;5012685;28;20047;-62
2021/06/11 06:45:08;;;;;;;6.35;4.95;;;;;;;22.62;54.59;95723.50;5027130;28;20056;-62
2021/06/11 06:47:34;;;;;;;5.05;4.70;;;;;;;22.02;54.44;95628.56;5030369;28;20014;-61
2021/06/11 06:49:59;;;;;;;6.05;5.30;;;;;;;22.64;53.92;95707.66;5028108;28;20085;-61
2021/06/11 06:52:25;;;;;;;9.00;4.88;;;;;;;22.56;52.06;95724.97;5026645;28;20244;-62
2021/06/11 06:54:50;;;;;;;4.72;4.38;;;;;;;22.30;53.87;95715.69;5027606;28;20049;-62
2021/06/11 06:57:15;;;;;;;6.40;5.90;;;;;;;21.60;53.61;95683.63;5027751;28;20021;-64
2021/06/11 06:59:41;;;;;;;5.38;4.97;;;;;;;22.02;54.73;95709.84;5029833;28;20025;-64
2021/06/11 07:02:07;;;;;;;5.00;4.53;;;;;;;21.91;55.45;95687.22;5027579;28;20048;-62
2021/06/11 07:04:32;;;;;;;8.60;5.82;;;;;;;21.20;54.42;95690.25;5027887;28;20037;-66
2021/06/11 07:06:58;;;;;;;5.40;4.90;;;;;;;20.56;56.78;95716.00;5027939;28;20094;-66
2021/06/11 07:09:24;;;;;;;5.47;5.07;;;;;;;20.03;57.07;95704.00;5027664;28;20106;-79
2021/06/11 07:11:51;;;;;;;5.00;4.60;;;;;;;20.38;56.58;95709.41;5030292;28;20057;-67
2021/06/11 07:14:17;;;;;;;4.78;4.38;;;;;;;21.11;55.38;95721.38;5009965;28;20399;-68
2021/06/11 07:16:43;;;;;;;4.68;4.28;;;;;;;21.49;55.07;95715.13;5013202;28;20115;-67
2021/06/11 07:19:09;;;;;;;6.45;5.05;;;;;;;21.32;55.16;95718.31;5017003;28;20573;-67
2021/06/11 07:21:34;;;;;;;6.22;5.72;;;;;;;20.42;56.52;95732.69;5028055;28;20088;-69
2021/06/11 07:24:00;;;;;;;6.68;5.03;;;;;;;21.31;54.60;95725.66;5030041;28;20025;-74
2021/06/11 07:26:25;;;;;;;5.13;4.72;;;;;;;21.58;53.97;95721.09;5032877;28;20042;-75
2021/06/11 07:28:50;;;;;;;4.88;4.57;;;;;;;21.77;54.62;95723.75;5014526;28;20076;-74
2021/06/11 07:31:16;;;;;;;4.75;4.40;;;;;;;21.98;54.03;95706.28;5032468;28;20037;-73
2021/06/11 07:33:41;;;;;;;4.95;4.65;;;;;;;21.87;54.21;95724.31;5032095;28;20553;-73
2021/06/11 07:36:07;;;;;;;5.30;4.90;;;;;;;21.58;53.56;95712.19;5031768;28;20159;-72
2021/06/11 07:38:33;;;;;;;4.72;4.22;;;;;;;21.23;54.21;95730.09;5033585;28;20033;-73
2021/06/11 07:40:58;;;;;;;4.70;4.30;;;;;;;21.53;54.53;95715.97;5031246;28;20045;-74
2021/06/11 07:43:24;;;;;;;5.15;4.85;;;;;;;21.01;53.08;95723.50;5013344;28;20053;-74
2021/06/11 07:45:51;;;;;;;5.35;4.88;;;;;;;20.81;53.78;95730.03;5031587;28;20045;-74
2021/06/11 07:48:16;;;;;;;5.28;4.88;;;;;;;21.27;52.02;95709.31;5029797;28;20028;-73
2021/06/11 07:50:42;;;;;;;4.35;3.95;;;;;;;21.27;52.67;95708.53;5014189;28;20026;-75
2021/06/11 07:53:07;;;;;;;5.15;4.80;;;;;;;21.19;53.56;95729.28;5010845;28;20758;-75
2021/06/11 07:55:33;;;;;;;6.40;4.20;;;;;;;21.79;52.22;95716.03;5010619;28;20476;-75
2021/06/11 07:57:59;;;;;;;4.82;4.50;;;;;;;22.17;51.95;95716.28;5012024;28;20093;-75
2021/06/11 08:00:25;;;;;;;4.95;4.50;;;;;;;21.40;51.92;95728.13;5007968;28;20100;-80
2021/06/11 08:02:56;;;;;;;5.50;5.10;;;;;;;21.71;51.43;95717.09;5014310;28;20022;-82
2021/06/11 08:05:21;;;;;;;5.05;4.68;;;;;;;21.06;53.37;95703.50;5013365;28;20033;-80
2021/06/11 08:07:47;;;;;;;5.40;4.32;;;;;;;21.85;53.10;95711.09;5013042;28;20041;-80
2021/06/11 08:10:12;;;;;;;4.18;3.88;;;;;;;22.30;51.77;95710.28;5012835;28;20033;-78
2021/06/11 08:12:37;;;;;;;4.30;4.00;;;;;;;22.04;51.19;95712.97;5013030;28;20054;-80
2021/06/11 08:15:05;;;;;;;4.88;4.47;;;;;;;21.22;51.85;95701.47;5013228;28;20037;-63
2021/06/11 08:17:30;;;;;;;5.55;5.05;;;;;;;20.72;53.43;95722.13;5015210;28;20030;-79
2021/06/11 08:19:55;;;;;;;4.57;4.18;;;;;;;20.84;53.42;95718.53;5013603;28;20083;-78
2021/06/11 08:22:21;;;;;;;4.22;3.83;;;;;;;21.29;50.89;95723.28;5012768;28;20062;-79
2021/06/11 08:24:46;;;;;;;4.90;4.45;;;;;;;21.58;51.10;95688.63;5012102;28;20125;-79
2021/06/11 08:27:11;;;;;;;4.03;3.72;;;;;;;21.84;50.33;95641.06;5012800;28;20486;-79
2021/06/11 08:29:37;;;;;;;4.35;4.05;;;;;;;22.55;49.96;95707.91;5014761;28;20029;-79
2021/06/11 08:32:03;;;;;;;6.07;5.57;;;;;;;21.83;49.76;95701.78;5012908;28;20136;-79
2021/06/11 08:34:29;;;;;;;5.50;5.10;;;;;;;22.11;50.20;95712.31;5023721;28;20042;-80
2021/06/11 08:37:00;;;;;;;5.07;4.68;;;;;;;22.69;48.60;95704.63;5025836;28;20519;-80
2021/06/11 08:39:25;;;;;;;5.10;4.70;;;;;;;22.51;49.35;95690.81;5012512;28;20053;-78
2021/06/11 08:41:51;;;;;;;5.00;4.65;;;;;;;21.52;49.73;95696.25;5014638;28;20041;-79
2021/06/11 08:44:19;;;;;;;4.82;4.45;;;;;;;21.56;49.49;95715.28;5012336;28;20046;-79
2021/06/11 08:46:47;;;;;;;4.47;4.18;;;;;;;22.19;48.64;95711.28;5015356;28;20119;-80
2021/06/11 08:49:14;;;;;;;4.07;3.78;;;;;;;21.49;49.98;95655.59;5032838;28;20037;-78
2021/06/11 08:51:39;;;;;;;3.85;3.55;;;;;;;22.19;48.71;95700.44;5027606;28;20022;-79
2021/06/11 08:54:04;;;;;;;4.43;4.13;;;;;;;22.56;47.85;95706.00;5011666;28;20038;-78
2021/06/11 08:56:30;;;;;;;4.68;4.25;;;;;;;22.95;48.03;95716.59;5019659;28;20017;-78
2021/06/11 08:58:55;;;;;;;4.68;4.38;;;;;;;23.08;47.58;95693.47;5012073;28;20058;-78
2021/06/11 09:01:20;;;;;;;4.20;3.90;;;;;;;23.03;47.59;95702.75;5014087;28;20076;-79
2021/06/11 09:03:53;;;;;;;5.05;4.65;;;;;;;21.98;49.41;95719.84;5024404;28;20084;-78
2021/06/11 09:06:19;;;;;;;4.70;4.32;;;;;;;22.66;48.74;95710.78;5014254;28;20379;-79
2021/06/11 09:08:55;;;;;;;4.88;4.57;;;;;;;22.64;48.67;95712.31;5033060;28;20022;-79
2021/06/11 09:11:32;;;;;;;4.55;4.25;;;;;;;22.06;50.12;95718.81;5012882;28;20038;-80
2021/06/11 09:14:06;;;;;;;4.30;3.90;;;;;;;22.49;47.89;95720.25;5025638;28;20068;-79
2021/06/11 09:16:49;;;;;;;5.40;4.90;;;;;;;23.12;46.17;95724.16;5019217;28;20100;-80
2021/06/11 09:19:19;;;;;;;4.55;4.15;;;;;;;23.53;44.99;95713.34;5011298;28;20034;-80
2021/06/11 09:21:47;;;;;;;4.03;3.72;;;;;;;22.93;44.09;95719.69;5012445;28;20510;-82
2021/06/11 09:24:27;;;;;;;3.67;3.38;;;;;;;22.97;44.66;95719.72;5012930;28;20025;-81
2021/06/11 09:26:58;;;;;;;3.63;3.42;;;;;;;22.66;41.81;95723.56;5034179;28;20546;-83
2021/06/11 09:29:26;;;;;;;3.45;3.20;;;;;;;21.91;42.85;95727.84;5013386;28;20057;-80
2021/06/11 09:32:19;;;;;;;2.70;2.60;;;;;;;22.20;39.98;95723.69;5012316;28;20045;-79
2021/06/11 09:34:51;;;;;;;3.25;3.05;;;;;;;22.23;42.43;95709.41;5010062;28;20042;-82
2021/06/11 09:37:20;;;;;;;3.85;3.65;;;;;;;22.44;42.80;95725.19;5012284;28;20038;-81
2021/06/11 09:39:54;;;;;;;3.10;2.90;;;;;;;22.76;41.24;95704.72;5013749;28;20056;-80
2021/06/11 09:42:25;;;;;;;3.47;3.28;;;;;;;22.09;43.03;95709.94;5028697;28;20025;-77
2021/06/11 09:44:59;;;;;;;3.33;3.13;;;;;;;22.95;42.40;95706.53;5013012;28;20084;-76
2021/06/11 09:47:48;;;;;;;3.45;3.15;;;;;;;23.48;39.75;95727.25;5010601;28;20030;-78
2021/06/11 09:50:17;;;;;;;3.85;3.55;;;;;;;23.09;40.70;95711.34;5026635;28;20057;-78
2021/06/11 09:53:08;;;;;;;3.55;3.35;;;;;;;22.95;41.84;95717.38;5011204;28;20039;-80
2021/06/11 09:55:49;;;;;;;3.80;3.50;;;;;;;23.05;41.39;95696.94;5010260;28;20045;-77
2021/06/11 09:58:16;;;;;;;4.55;4.07;;;;;;;23.42;39.80;95702.38;5020358;28;20037;-77
2021/06/11 10:00:49;;;;;;;3.38;3.08;;;;;;;24.14;39.82;95703.78;5025091;28;20476;-79
2021/06/11 10:03:17;;;;;;;4.70;3.53;;;;;;;24.32;38.45;95695.78;5010356;28;20026;-77
2021/06/11 10:05:43;;;;;;;3.45;3.15;;;;;;;24.89;37.97;95709.72;5012287;28;20018;-78
2021/06/11 10:08:10;;;;;;;3.42;3.20;;;;;;;25.12;37.10;95684.91;5012567;28;20128;-77
2021/06/11 10:10:36;;;;;;;3.20;3.00;;;;;;;25.23;36.20;95688.44;5009103;28;20045;-78
2021/06/11 10:13:02;;;;;;;3.83;3.53;;;;;;;24.28;38.17;95701.19;5010135;28;20139;-78
2021/06/11 10:15:27;;;;;;;3.85;3.50;;;;;;;24.70;37.60;95708.06;5010168;28;20495;-76
2021/06/11 10:17:53;;;;;;;3.50;3.30;;;;;;;24.23;39.38;95689.88;5012019;28;20026;-81
2021/06/11 10:20:21;;;;;;;4.30;3.88;;;;;;;24.24;38.35;95703.09;5025110;28;20041;-79
2021/06/11 10:22:47;;;;;;;3.78;3.50;;;;;;;24.21;39.59;95689.47;5025035;28;20038;-81
2021/06/11 10:25:13;;;;;;;4.20;3.80;;;;;;;24.71;37.74;95712.31;5021352;28;20040;-77
2021/06/11 10:27:44;;;;;;;4.85;4.45;;;;;;;24.68;37.05;95694.06;5009535;28;20572;-79
2021/06/11 10:30:11;;;;;;;4.22;3.92;;;;;;;25.45;36.39;95702.13;5011525;28;20503;-80
2021/06/11 10:32:41;;;;;;;3.95;3.65;;;;;;;25.93;36.49;95683.50;5012904;28;20041;-79
2021/06/11 10:35:10;;;;;;;3.63;3.33;;;;;;;26.49;35.36;95702.97;5010347;28;20070;-80
2021/06/11 10:37:45;;;;;;;4.00;3.70;;;;;;;25.98;36.15;95696.75;5010746;28;20788;-77
2021/06/11 10:40:22;;;;;;;6.15;4.70;;;;;;;26.01;36.73;95685.06;5010596;28;20034;-89
2021/06/11 10:42:47;;;;;;;5.78;4.45;;;;;;;26.03;37.49;95687.41;5024635;28;20041;-72
2021/06/11 10:45:13;;;;;;;5.25;4.60;;;;;;;24.51;39.96;95690.06;5007366;28;20026;-73
2021/06/11 10:47:53;;;;;;;4.30;3.90;;;;;;;24.56;40.05;95702.53;5010450;28;20034;-71
2021/06/11 10:50:33;;;;;;;4.45;4.25;;;;;;;24.81;38.93;95678.94;5004428;28;20042;-81
2021/06/11 10:53:26;;;;;;;4.35;4.05;;;;;;;25.53;37.78;95695.50;5007253;28;20038;-75
2021/06/11 10:56:06;;;;;;;4.10;3.78;;;;;;;24.85;38.66;95696.06;5007868;28;20503;-69
2021/06/11 10:58:33;;;;;;;4.05;3.75;;;;;;;25.79;37.59;95683.50;5008494;28;20030;-69
2021/06/11 11:01:19;;;;;;;3.65;3.45;;;;;;;26.23;36.49;95674.91;5011313;28;20113;-70
2021/06/11 11:03:44;;;;;;;4.20;3.90;;;;;;;25.93;36.48;95667.94;5011995;28;20037;-70
2021/06/11 11:06:34;;;;;;;5.47;4.20;;;;;;;24.77;38.62;95680.91;5011247;28;20041;-71
2021/06/11 11:09:02;;;;;;;4.40;4.07;;;;;;;25.41;37.52;95678.38;5013949;28;20022;-71
2021/06/11 11:11:31;;;;;;;4.10;3.47;;;;;;;25.41;37.12;95683.06;5012376;28;20038;-78
2021/06/11 11:13:57;;;;;;;3.60;3.30;;;;;;;25.24;38.12;95670.97;5013683;28;20503;-84
2021/06/11 11:16:25;;;;;;;3.33;3.13;;;;;;;25.69;36.59;95679.56;5015343;28;20053;-81
2021/06/11 11:18:51;;;;;;;3.67;3.47;;;;;;;24.28;35.54;95651.47;5021453;28;20055;-84
2021/06/11 11:21:26;;;;;;;3.40;3.20;;;;;;;24.86;36.05;95658.75;5033034;28;20445;-80
2021/06/11 11:23:57;;;;;;;3.35;3.05;;;;;;;25.78;36.49;95663.66;5014887;28;20395;-84
2021/06/11 11:26:41;;;;;;;3.63;3.03;;;;;;;26.88;33.41;95665.41;5013162;28;20034;-70
2021/06/11 11:29:07;;;;;;;3.40;3.20;;;;;;;25.40;34.44;95667.88;5011932;28;20049;-70
2021/06/11 11:31:33;;;;;;;3.53;3.33;;;;;;;25.12;35.06;95660.41;5011981;28;20507;-70
2021/06/11 11:33:58;;;;;;;3.42;3.22;;;;;;;25.09;35.79;95653.81;5013580;28;20029;-70
2021/06/11 11:36:24;;;;;;;3.33;3.13;;;;;;;24.34;37.52;95663.53;5028913;28;20073;-71
2021/06/11 11:38:50;;;;;;;3.67;3.45;;;;;;;24.03;38.24;95662.19;5013342;28;20029;-71